sensor_id;sensor_type;location;lat;lon;timestamp;P1;durP1;ratioP1;P2;durP2;ratioP2
24637;SDS011;12773;50.162;8.548;2022-09-27T00:00:37;1.80;;;1.35;;
24637;SDS011;12773;50.162;8.548;2022-09-27T00:03:27;2.72;;;1.55;;
24637;SDS011;12773;50.162;8.548;2022-09-27T00:06:19;3.15;;;1.42;;
24637;SDS011;12773;50.162;8.548;2022-09-27T00:09:11;3.67;;;1.52;;
24637;SDS011;12773;50.162;8.548;2022-09-27T00:11:59;2.40;;;1.60;;
24637;SDS011;12773;50.162;8.548;2022-09-27T00:14:46;1.60;;;1.47;;
24637;SDS011;12773;50.162;8.548;2022-09-27T00:17:34;2.62;;;1.40;;
24637;SDS011;12773;50.162;8.548;2022-09-27T00:20:23;2.17;;;1.32;;
24637;SDS011;12773;50.162;8.548;2022-09-27T00:23:11;1.90;;;1.25;;
24637;SDS011;12773;50.162;8.548;2022-09-27T00:25:58;1.45;;;1.15;;
24637;SDS011;12773;50.162;8.548;2022-09-27T00:28:46;2.62;;;1.10;;
24637;SDS011;12773;50.162;8.548;2022-09-27T00:31:34;1.62;;;1.07;;
24637;SDS011;12773;50.162;8.548;2022-09-27T00:34:24;1.52;;;1.10;;
24637;SDS011;12773;50.162;8.548;2022-09-27T00:37:12;1.30;;;1.05;;
24637;SDS011;12773;50.162;8.548;2022-09-27T00:39:59;1.30;;;1.10;;
24637;SDS011;12773;50.162;8.548;2022-09-27T00:42:47;1.65;;;1.30;;
24637;SDS011;12773;50.162;8.548;2022-09-27T00:45:35;2.45;;;1.55;;
24637;SDS011;12773;50.162;8.548;2022-09-27T00:48:23;2.58;;;1.42;;
24637;SDS011;12773;50.162;8.548;2022-09-27T00:51:14;2.22;;;1.55;;
24637;SDS011;12773;50.162;8.548;2022-09-27T00:54:01;2.75;;;1.60;;
24637;SDS011;12773;50.162;8.548;2022-09-27T00:56:49;2.70;;;1.50;;
24637;SDS011;12773;50.162;8.548;2022-09-27T00:59:40;5.45;;;1.52;;
24637;SDS011;12773;50.162;8.548;2022-09-27T01:02:30;1.80;;;1.50;;
24637;SDS011;12773;50.162;8.548;2022-09-27T01:05:18;2.42;;;1.60;;
24637;SDS011;12773;50.162;8.548;2022-09-27T01:08:08;2.25;;;1.50;;
24637;SDS011;12773;50.162;8.548;2022-09-27T01:11:06;1.95;;;1.50;;
24637;SDS011;12773;50.162;8.548;2022-09-27T01:17:21;2.72;;;1.50;;
24637;SDS011;12773;50.162;8.548;2022-09-27T01:20:27;1.98;;;1.65;;
24637;SDS011;12773;50.162;8.548;2022-09-27T01:26:55;2.20;;;1.95;;
24637;SDS011;12773;50.162;8.548;2022-09-27T01:33:06;2.90;;;2.00;;
24637;SDS011;12773;50.162;8.548;2022-09-27T01:35:59;3.00;;;2.12;;
24637;SDS011;12773;50.162;8.548;2022-09-27T01:42:13;3.90;;;2.62;;
24637;SDS011;12773;50.162;8.548;2022-09-27T01:45:20;7.45;;;2.50;;
24637;SDS011;12773;50.162;8.548;2022-09-27T01:48:21;9.63;;;2.70;;
24637;SDS011;12773;50.162;8.548;2022-09-27T01:51:11;5.12;;;2.83;;
24637;SDS011;12773;50.162;8.548;2022-09-27T01:54:03;7.22;;;3.08;;
24637;SDS011;12773;50.162;8.548;2022-09-27T01:56:54;4.83;;;2.72;;
24637;SDS011;12773;50.162;8.548;2022-09-27T01:59:44;6.22;;;2.85;;
24637;SDS011;12773;50.162;8.548;2022-09-27T02:03:26;4.55;;;2.72;;
24637;SDS011;12773;50.162;8.548;2022-09-27T02:05:56;4.20;;;2.50;;
24637;SDS011;12773;50.162;8.548;2022-09-27T02:11:31;5.97;;;2.85;;
24637;SDS011;12773;50.162;8.548;2022-09-27T02:14:22;10.43;;;3.12;;
24637;SDS011;12773;50.162;8.548;2022-09-27T02:17:20;9.97;;;3.40;;
24637;SDS011;12773;50.162;8.548;2022-09-27T02:20:29;6.85;;;2.72;;
24637;SDS011;12773;50.162;8.548;2022-09-27T02:26:31;4.12;;;2.55;;
24637;SDS011;12773;50.162;8.548;2022-09-27T02:29:20;7.42;;;2.33;;
24637;SDS011;12773;50.162;8.548;2022-09-27T02:32:10;4.97;;;2.30;;
24637;SDS011;12773;50.162;8.548;2022-09-27T02:37:35;8.70;;;2.42;;
24637;SDS011;12773;50.162;8.548;2022-09-27T02:40:24;6.47;;;2.33;;
24637;SDS011;12773;50.162;8.548;2022-09-27T02:43:13;10.72;;;2.25;;
24637;SDS011;12773;50.162;8.548;2022-09-27T02:46:07;7.72;;;2.58;;
24637;SDS011;12773;50.162;8.548;2022-09-27T02:49:09;4.40;;;2.33;;
24637;SDS011;12773;50.162;8.548;2022-09-27T02:55:09;6.10;;;2.30;;
24637;SDS011;12773;50.162;8.548;2022-09-27T02:58:17;4.47;;;2.05;;
24637;SDS011;12773;50.162;8.548;2022-09-27T03:01:07;4.75;;;1.75;;
24637;SDS011;12773;50.162;8.548;2022-09-27T03:04:07;5.47;;;1.67;;
24637;SDS011;12773;50.162;8.548;2022-09-27T03:06:57;3.95;;;1.30;;
24637;SDS011;12773;50.162;8.548;2022-09-27T03:09:47;6.62;;;1.32;;
24637;SDS011;12773;50.162;8.548;2022-09-27T03:12:36;3.77;;;1.17;;
24637;SDS011;12773;50.162;8.548;2022-09-27T03:15:23;3.15;;;0.80;;
24637;SDS011;12773;50.162;8.548;2022-09-27T03:18:11;1.75;;;0.60;;
24637;SDS011;12773;50.162;8.548;2022-09-27T03:20:58;1.15;;;0.65;;
24637;SDS011;12773;50.162;8.548;2022-09-27T03:23:45;0.78;;;0.45;;
24637;SDS011;12773;50.162;8.548;2022-09-27T03:26:33;3.75;;;0.60;;
24637;SDS011;12773;50.162;8.548;2022-09-27T03:29:20;1.60;;;0.70;;
24637;SDS011;12773;50.162;8.548;2022-09-27T03:32:08;1.52;;;0.62;;
24637;SDS011;12773;50.162;8.548;2022-09-27T03:34:55;1.60;;;0.60;;
24637;SDS011;12773;50.162;8.548;2022-09-27T03:37:42;1.35;;;0.70;;
24637;SDS011;12773;50.162;8.548;2022-09-27T03:40:31;0.98;;;0.60;;
24637;SDS011;12773;50.162;8.548;2022-09-27T03:43:19;1.52;;;0.65;;
24637;SDS011;12773;50.162;8.548;2022-09-27T03:46:06;0.60;;;0.60;;
24637;SDS011;12773;50.162;8.548;2022-09-27T03:48:54;1.70;;;0.70;;
24637;SDS011;12773;50.162;8.548;2022-09-27T03:51:42;0.75;;;0.68;;
24637;SDS011;12773;50.162;8.548;2022-09-27T03:54:29;1.95;;;0.70;;
24637;SDS011;12773;50.162;8.548;2022-09-27T03:57:17;5.78;;;0.70;;
24637;SDS011;12773;50.162;8.548;2022-09-27T04:00:04;2.05;;;0.90;;
24637;SDS011;12773;50.162;8.548;2022-09-27T04:02:53;0.70;;;0.60;;
24637;SDS011;12773;50.162;8.548;2022-09-27T04:05:40;2.15;;;0.60;;
24637;SDS011;12773;50.162;8.548;2022-09-27T04:08:28;0.80;;;0.47;;
24637;SDS011;12773;50.162;8.548;2022-09-27T04:11:15;2.25;;;0.55;;
24637;SDS011;12773;50.162;8.548;2022-09-27T04:14:03;2.05;;;0.70;;
24637;SDS011;12773;50.162;8.548;2022-09-27T04:16:50;0.90;;;0.57;;
24637;SDS011;12773;50.162;8.548;2022-09-27T04:19:38;1.30;;;0.60;;
24637;SDS011;12773;50.162;8.548;2022-09-27T04:22:25;1.47;;;0.57;;
24637;SDS011;12773;50.162;8.548;2022-09-27T04:25:13;2.55;;;0.50;;
24637;SDS011;12773;50.162;8.548;2022-09-27T04:28:00;1.75;;;0.72;;
24637;SDS011;12773;50.162;8.548;2022-09-27T04:30:47;0.93;;;0.68;;
24637;SDS011;12773;50.162;8.548;2022-09-27T04:33:35;2.87;;;0.70;;
24637;SDS011;12773;50.162;8.548;2022-09-27T04:36:22;0.95;;;0.55;;
24637;SDS011;12773;50.162;8.548;2022-09-27T04:39:12;0.82;;;0.60;;
24637;SDS011;12773;50.162;8.548;2022-09-27T04:41:59;3.42;;;0.80;;
24637;SDS011;12773;50.162;8.548;2022-09-27T04:44:46;4.42;;;0.60;;
24637;SDS011;12773;50.162;8.548;2022-09-27T04:47:34;3.15;;;0.80;;
24637;SDS011;12773;50.162;8.548;2022-09-27T04:50:21;2.70;;;0.95;;
24637;SDS011;12773;50.162;8.548;2022-09-27T04:53:13;2.40;;;0.60;;
24637;SDS011;12773;50.162;8.548;2022-09-27T04:56:18;0.72;;;0.70;;
24637;SDS011;12773;50.162;8.548;2022-09-27T04:59:05;0.80;;;0.60;;
24637;SDS011;12773;50.162;8.548;2022-09-27T05:01:55;4.08;;;0.82;;
24637;SDS011;12773;50.162;8.548;2022-09-27T05:04:44;3.42;;;0.75;;
24637;SDS011;12773;50.162;8.548;2022-09-27T05:07:32;7.05;;;0.80;;
24637;SDS011;12773;50.162;8.548;2022-09-27T05:10:20;2.42;;;0.60;;
24637;SDS011;12773;50.162;8.548;2022-09-27T05:13:08;1.60;;;0.57;;
24637;SDS011;12773;50.162;8.548;2022-09-27T05:16:00;3.98;;;0.70;;
24637;SDS011;12773;50.162;8.548;2022-09-27T05:18:48;3.37;;;0.88;;
24637;SDS011;12773;50.162;8.548;2022-09-27T05:21:35;0.95;;;0.45;;
24637;SDS011;12773;50.162;8.548;2022-09-27T05:24:22;2.22;;;0.42;;
24637;SDS011;12773;50.162;8.548;2022-09-27T05:27:11;2.25;;;0.50;;
24637;SDS011;12773;50.162;8.548;2022-09-27T05:30:01;1.40;;;0.50;;
24637;SDS011;12773;50.162;8.548;2022-09-27T05:32:49;2.22;;;0.47;;
24637;SDS011;12773;50.162;8.548;2022-09-27T05:35:37;0.82;;;0.45;;
24637;SDS011;12773;50.162;8.548;2022-09-27T05:38:28;1.57;;;0.57;;
24637;SDS011;12773;50.162;8.548;2022-09-27T05:41:15;1.05;;;0.57;;
24637;SDS011;12773;50.162;8.548;2022-09-27T05:44:03;0.75;;;0.42;;
24637;SDS011;12773;50.162;8.548;2022-09-27T05:46:50;1.47;;;0.50;;
24637;SDS011;12773;50.162;8.548;2022-09-27T05:49:38;0.55;;;0.50;;
24637;SDS011;12773;50.162;8.548;2022-09-27T05:52:25;1.85;;;0.50;;
24637;SDS011;12773;50.162;8.548;2022-09-27T05:55:14;1.32;;;0.65;;
24637;SDS011;12773;50.162;8.548;2022-09-27T05:58:03;3.70;;;0.65;;
24637;SDS011;12773;50.162;8.548;2022-09-27T06:00:52;0.60;;;0.45;;
24637;SDS011;12773;50.162;8.548;2022-09-27T06:03:39;3.25;;;0.50;;
24637;SDS011;12773;50.162;8.548;2022-09-27T06:06:27;1.85;;;0.40;;
24637;SDS011;12773;50.162;8.548;2022-09-27T06:09:15;3.50;;;0.50;;
24637;SDS011;12773;50.162;8.548;2022-09-27T06:12:03;0.98;;;0.55;;
24637;SDS011;12773;50.162;8.548;2022-09-27T06:14:52;0.82;;;0.57;;
24637;SDS011;12773;50.162;8.548;2022-09-27T06:17:39;0.80;;;0.50;;
24637;SDS011;12773;50.162;8.548;2022-09-27T06:20:27;1.67;;;0.60;;
24637;SDS011;12773;50.162;8.548;2022-09-27T06:23:21;1.65;;;0.72;;
24637;SDS011;12773;50.162;8.548;2022-09-27T06:26:09;1.47;;;0.80;;
24637;SDS011;12773;50.162;8.548;2022-09-27T06:28:57;1.98;;;0.85;;
24637;SDS011;12773;50.162;8.548;2022-09-27T06:31:44;2.58;;;0.60;;
24637;SDS011;12773;50.162;8.548;2022-09-27T06:34:31;1.35;;;0.80;;
24637;SDS011;12773;50.162;8.548;2022-09-27T06:37:18;1.00;;;0.80;;
24637;SDS011;12773;50.162;8.548;2022-09-27T06:40:06;3.40;;;0.72;;
24637;SDS011;12773;50.162;8.548;2022-09-27T06:43:00;1.40;;;0.50;;
24637;SDS011;12773;50.162;8.548;2022-09-27T06:45:54;4.00;;;0.80;;
24637;SDS011;12773;50.162;8.548;2022-09-27T06:48:41;0.60;;;0.60;;
24637;SDS011;12773;50.162;8.548;2022-09-27T06:51:28;1.02;;;0.70;;
24637;SDS011;12773;50.162;8.548;2022-09-27T06:54:15;0.60;;;0.57;;
24637;SDS011;12773;50.162;8.548;2022-09-27T06:57:04;1.47;;;0.60;;
24637;SDS011;12773;50.162;8.548;2022-09-27T06:59:51;3.50;;;0.80;;
24637;SDS011;12773;50.162;8.548;2022-09-27T07:02:57;3.62;;;0.80;;
24637;SDS011;12773;50.162;8.548;2022-09-27T07:05:57;0.50;;;0.50;;
24637;SDS011;12773;50.162;8.548;2022-09-27T07:08:52;2.42;;;0.70;;
24637;SDS011;12773;50.162;8.548;2022-09-27T07:11:40;4.20;;;0.62;;
24637;SDS011;12773;50.162;8.548;2022-09-27T07:14:29;2.25;;;0.80;;
24637;SDS011;12773;50.162;8.548;2022-09-27T07:17:18;1.67;;;0.60;;
24637;SDS011;12773;50.162;8.548;2022-09-27T07:20:06;1.90;;;0.42;;
24637;SDS011;12773;50.162;8.548;2022-09-27T07:22:53;1.70;;;0.60;;
24637;SDS011;12773;50.162;8.548;2022-09-27T07:25:41;0.78;;;0.40;;
24637;SDS011;12773;50.162;8.548;2022-09-27T07:28:29;1.00;;;0.80;;
24637;SDS011;12773;50.162;8.548;2022-09-27T07:31:16;2.02;;;0.50;;
24637;SDS011;12773;50.162;8.548;2022-09-27T07:34:04;2.85;;;0.60;;
24637;SDS011;12773;50.162;8.548;2022-09-27T07:36:51;0.88;;;0.50;;
24637;SDS011;12773;50.162;8.548;2022-09-27T07:39:39;1.22;;;0.70;;
24637;SDS011;12773;50.162;8.548;2022-09-27T07:42:27;0.80;;;0.40;;
24637;SDS011;12773;50.162;8.548;2022-09-27T07:45:15;3.20;;;0.68;;
24637;SDS011;12773;50.162;8.548;2022-09-27T07:48:04;1.62;;;0.53;;
24637;SDS011;12773;50.162;8.548;2022-09-27T07:50:56;1.52;;;0.70;;
24637;SDS011;12773;50.162;8.548;2022-09-27T07:53:44;1.67;;;0.60;;
24637;SDS011;12773;50.162;8.548;2022-09-27T07:56:31;6.55;;;3.50;;
24637;SDS011;12773;50.162;8.548;2022-09-27T07:59:19;3.15;;;1.57;;
24637;SDS011;12773;50.162;8.548;2022-09-27T08:02:11;3.02;;;0.53;;
24637;SDS011;12773;50.162;8.548;2022-09-27T08:04:56;0.98;;;0.65;;
24637;SDS011;12773;50.162;8.548;2022-09-27T08:07:45;6.87;;;0.62;;
24637;SDS011;12773;50.162;8.548;2022-09-27T08:10:33;2.95;;;0.47;;
24637;SDS011;12773;50.162;8.548;2022-09-27T08:13:20;2.58;;;0.40;;
24637;SDS011;12773;50.162;8.548;2022-09-27T08:16:08;0.80;;;0.40;;
24637;SDS011;12773;50.162;8.548;2022-09-27T08:18:56;5.47;;;0.50;;
24637;SDS011;12773;50.162;8.548;2022-09-27T08:21:44;2.75;;;0.50;;
24637;SDS011;12773;50.162;8.548;2022-09-27T08:24:32;2.37;;;0.50;;
24637;SDS011;12773;50.162;8.548;2022-09-27T08:27:19;2.02;;;0.57;;
24637;SDS011;12773;50.162;8.548;2022-09-27T08:30:07;2.70;;;0.60;;
24637;SDS011;12773;50.162;8.548;2022-09-27T08:32:55;0.57;;;0.35;;
24637;SDS011;12773;50.162;8.548;2022-09-27T08:35:44;1.30;;;0.40;;
24637;SDS011;12773;50.162;8.548;2022-09-27T08:38:31;1.37;;;0.55;;
24637;SDS011;12773;50.162;8.548;2022-09-27T08:53:22;2.60;;;0.50;;
24637;SDS011;12773;50.162;8.548;2022-09-27T08:56:12;2.92;;;0.55;;
24637;SDS011;12773;50.162;8.548;2022-09-27T08:59:12;2.10;;;0.55;;
24637;SDS011;12773;50.162;8.548;2022-09-27T09:02:04;3.08;;;0.40;;
24637;SDS011;12773;50.162;8.548;2022-09-27T09:04:53;2.60;;;0.50;;
24637;SDS011;12773;50.162;8.548;2022-09-27T09:07:56;5.65;;;1.90;;
24637;SDS011;12773;50.162;8.548;2022-09-27T09:10:50;4.67;;;1.02;;
24637;SDS011;12773;50.162;8.548;2022-09-27T09:14:20;1.35;;;0.72;;
24637;SDS011;12773;50.162;8.548;2022-09-27T09:17:27;0.62;;;0.40;;
24637;SDS011;12773;50.162;8.548;2022-09-27T09:20:29;1.75;;;0.50;;
24637;SDS011;12773;50.162;8.548;2022-09-27T09:23:49;1.87;;;0.50;;
24637;SDS011;12773;50.162;8.548;2022-09-27T09:33:02;0.60;;;0.37;;
24637;SDS011;12773;50.162;8.548;2022-09-27T09:36:04;2.15;;;0.80;;
24637;SDS011;12773;50.162;8.548;2022-09-27T09:38:57;6.20;;;1.02;;
24637;SDS011;12773;50.162;8.548;2022-09-27T09:44:58;1.92;;;0.60;;
24637;SDS011;12773;50.162;8.548;2022-09-27T09:48:11;4.05;;;0.70;;
24637;SDS011;12773;50.162;8.548;2022-09-27T09:51:07;2.58;;;0.40;;
24637;SDS011;12773;50.162;8.548;2022-09-27T09:54:44;0.40;;;0.37;;
24637;SDS011;12773;50.162;8.548;2022-09-27T09:57:15;1.55;;;0.50;;
24637;SDS011;12773;50.162;8.548;2022-09-27T10:00:12;0.47;;;0.33;;
24637;SDS011;12773;50.162;8.548;2022-09-27T10:03:02;3.02;;;0.53;;
24637;SDS011;12773;50.162;8.548;2022-09-27T10:05:49;1.30;;;0.70;;
24637;SDS011;12773;50.162;8.548;2022-09-27T10:08:37;0.47;;;0.47;;
24637;SDS011;12773;50.162;8.548;2022-09-27T10:11:26;0.85;;;0.57;;
24637;SDS011;12773;50.162;8.548;2022-09-27T10:14:17;5.30;;;0.50;;
24637;SDS011;12773;50.162;8.548;2022-09-27T10:17:09;0.33;;;0.33;;
24637;SDS011;12773;50.162;8.548;2022-09-27T10:19:57;0.37;;;0.30;;
24637;SDS011;12773;50.162;8.548;2022-09-27T10:22:46;1.35;;;0.47;;
24637;SDS011;12773;50.162;8.548;2022-09-27T10:25:59;2.12;;;0.53;;
24637;SDS011;12773;50.162;8.548;2022-09-27T10:31:53;3.65;;;0.70;;
24637;SDS011;12773;50.162;8.548;2022-09-27T10:34:42;1.52;;;0.80;;
24637;SDS011;12773;50.162;8.548;2022-09-27T10:37:29;2.17;;;0.40;;
24637;SDS011;12773;50.162;8.548;2022-09-27T10:40:25;0.53;;;0.30;;
24637;SDS011;12773;50.162;8.548;2022-09-27T10:43:25;0.45;;;0.20;;
24637;SDS011;12773;50.162;8.548;2022-09-27T10:52:18;0.68;;;0.30;;
24637;SDS011;12773;50.162;8.548;2022-09-27T10:58:04;0.60;;;0.40;;
24637;SDS011;12773;50.162;8.548;2022-09-27T11:00:58;2.25;;;0.40;;
24637;SDS011;12773;50.162;8.548;2022-09-27T11:03:53;0.57;;;0.40;;
24637;SDS011;12773;50.162;8.548;2022-09-27T11:06:42;1.72;;;0.30;;
24637;SDS011;12773;50.162;8.548;2022-09-27T11:09:29;0.30;;;0.30;;
24637;SDS011;12773;50.162;8.548;2022-09-27T11:12:17;0.88;;;0.40;;
24637;SDS011;12773;50.162;8.548;2022-09-27T11:15:08;1.10;;;0.78;;
24637;SDS011;12773;50.162;8.548;2022-09-27T11:18:03;0.90;;;0.60;;
24637;SDS011;12773;50.162;8.548;2022-09-27T11:20:52;0.68;;;0.57;;
24637;SDS011;12773;50.162;8.548;2022-09-27T11:42:31;1.00;;;0.50;;
24637;SDS011;12773;50.162;8.548;2022-09-27T11:55:28;1.07;;;0.53;;
24637;SDS011;12773;50.162;8.548;2022-09-27T11:58:20;0.45;;;0.30;;
24637;SDS011;12773;50.162;8.548;2022-09-27T12:01:17;0.90;;;0.50;;
24637;SDS011;12773;50.162;8.548;2022-09-27T12:04:14;4.12;;;0.55;;
24637;SDS011;12773;50.162;8.548;2022-09-27T12:07:04;1.62;;;0.50;;
24637;SDS011;12773;50.162;8.548;2022-09-27T12:10:00;0.30;;;0.30;;
24637;SDS011;12773;50.162;8.548;2022-09-27T12:12:49;1.12;;;0.53;;
24637;SDS011;12773;50.162;8.548;2022-09-27T12:15:40;1.72;;;0.60;;
24637;SDS011;12773;50.162;8.548;2022-09-27T12:18:34;2.08;;;0.47;;
24637;SDS011;12773;50.162;8.548;2022-09-27T12:21:23;1.45;;;0.42;;
24637;SDS011;12773;50.162;8.548;2022-09-27T12:24:17;3.22;;;0.50;;
24637;SDS011;12773;50.162;8.548;2022-09-27T12:27:06;1.80;;;0.60;;
24637;SDS011;12773;50.162;8.548;2022-09-27T12:29:56;2.08;;;0.57;;
24637;SDS011;12773;50.162;8.548;2022-09-27T12:35:50;1.77;;;0.50;;
24637;SDS011;12773;50.162;8.548;2022-09-27T12:38:41;0.70;;;0.70;;
24637;SDS011;12773;50.162;8.548;2022-09-27T12:41:40;0.65;;;0.50;;
24637;SDS011;12773;50.162;8.548;2022-09-27T12:44:31;1.90;;;0.60;;
24637;SDS011;12773;50.162;8.548;2022-09-27T12:50:34;1.42;;;0.62;;
24637;SDS011;12773;50.162;8.548;2022-09-27T12:53:36;3.47;;;0.50;;
24637;SDS011;12773;50.162;8.548;2022-09-27T12:59:59;5.45;;;0.60;;
24637;SDS011;12773;50.162;8.548;2022-09-27T13:06:07;2.37;;;0.55;;
24637;SDS011;12773;50.162;8.548;2022-09-27T13:12:06;2.70;;;0.60;;
24637;SDS011;12773;50.162;8.548;2022-09-27T13:15:00;2.30;;;0.85;;
24637;SDS011;12773;50.162;8.548;2022-09-27T13:17:53;6.35;;;3.22;;
24637;SDS011;12773;50.162;8.548;2022-09-27T13:20:44;2.75;;;1.50;;
24637;SDS011;12773;50.162;8.548;2022-09-27T13:29:23;3.42;;;0.90;;
24637;SDS011;12773;50.162;8.548;2022-09-27T13:32:14;1.55;;;0.88;;
24637;SDS011;12773;50.162;8.548;2022-09-27T13:35:20;1.52;;;0.70;;
24637;SDS011;12773;50.162;8.548;2022-09-27T13:38:21;2.30;;;0.90;;
24637;SDS011;12773;50.162;8.548;2022-09-27T13:41:17;6.30;;;1.47;;
24637;SDS011;12773;50.162;8.548;2022-09-27T13:47:03;2.40;;;0.60;;
24637;SDS011;12773;50.162;8.548;2022-09-27T13:53:23;2.50;;;0.55;;
24637;SDS011;12773;50.162;8.548;2022-09-27T14:05:54;1.80;;;0.90;;
24637;SDS011;12773;50.162;8.548;2022-09-27T14:09:04;1.22;;;0.90;;
24637;SDS011;12773;50.162;8.548;2022-09-27T14:11:57;2.85;;;1.17;;
24637;SDS011;12773;50.162;8.548;2022-09-27T14:14:43;1.17;;;0.70;;
24637;SDS011;12773;50.162;8.548;2022-09-27T14:17:34;3.25;;;1.05;;
24637;SDS011;12773;50.162;8.548;2022-09-27T14:20:30;2.17;;;1.00;;
24637;SDS011;12773;50.162;8.548;2022-09-27T14:23:27;3.15;;;1.00;;
24637;SDS011;12773;50.162;8.548;2022-09-27T14:26:34;3.00;;;0.85;;
24637;SDS011;12773;50.162;8.548;2022-09-27T14:29:15;3.58;;;0.80;;
24637;SDS011;12773;50.162;8.548;2022-09-27T14:32:10;1.42;;;0.80;;
24637;SDS011;12773;50.162;8.548;2022-09-27T14:35:22;2.02;;;0.90;;
24637;SDS011;12773;50.162;8.548;2022-09-27T14:38:18;1.30;;;0.70;;
24637;SDS011;12773;50.162;8.548;2022-09-27T14:41:09;2.90;;;0.78;;
24637;SDS011;12773;50.162;8.548;2022-09-27T14:43:57;1.50;;;0.75;;
24637;SDS011;12773;50.162;8.548;2022-09-27T14:46:45;1.85;;;0.80;;
24637;SDS011;12773;50.162;8.548;2022-09-27T14:49:32;1.07;;;0.80;;
24637;SDS011;12773;50.162;8.548;2022-09-27T14:52:22;2.42;;;0.60;;
24637;SDS011;12773;50.162;8.548;2022-09-27T14:55:14;1.15;;;0.90;;
24637;SDS011;12773;50.162;8.548;2022-09-27T14:58:03;2.33;;;0.80;;
24637;SDS011;12773;50.162;8.548;2022-09-27T15:00:50;1.82;;;0.68;;
24637;SDS011;12773;50.162;8.548;2022-09-27T15:03:39;2.05;;;0.80;;
24637;SDS011;12773;50.162;8.548;2022-09-27T15:06:28;0.90;;;0.70;;
24637;SDS011;12773;50.162;8.548;2022-09-27T15:09:16;3.70;;;0.90;;
24637;SDS011;12773;50.162;8.548;2022-09-27T15:12:04;0.95;;;0.70;;
24637;SDS011;12773;50.162;8.548;2022-09-27T15:14:53;4.00;;;0.90;;
24637;SDS011;12773;50.162;8.548;2022-09-27T15:17:45;2.62;;;1.17;;
24637;SDS011;12773;50.162;8.548;2022-09-27T15:20:33;2.55;;;1.30;;
24637;SDS011;12773;50.162;8.548;2022-09-27T15:23:28;2.83;;;1.17;;
24637;SDS011;12773;50.162;8.548;2022-09-27T15:26:23;2.52;;;1.10;;
24637;SDS011;12773;50.162;8.548;2022-09-27T15:29:21;3.35;;;1.72;;
24637;SDS011;12773;50.162;8.548;2022-09-27T15:32:12;2.85;;;0.70;;
24637;SDS011;12773;50.162;8.548;2022-09-27T15:35:05;1.62;;;0.80;;
24637;SDS011;12773;50.162;8.548;2022-09-27T15:38:08;2.02;;;0.65;;
24637;SDS011;12773;50.162;8.548;2022-09-27T15:43:45;1.95;;;0.60;;
24637;SDS011;12773;50.162;8.548;2022-09-27T15:46:35;2.85;;;0.90;;
24637;SDS011;12773;50.162;8.548;2022-09-27T15:49:30;1.77;;;1.00;;
24637;SDS011;12773;50.162;8.548;2022-09-27T15:52:40;1.32;;;0.90;;
24637;SDS011;12773;50.162;8.548;2022-09-27T15:55:30;1.02;;;0.72;;
24637;SDS011;12773;50.162;8.548;2022-09-27T15:58:19;2.50;;;0.80;;
24637;SDS011;12773;50.162;8.548;2022-09-27T16:01:13;2.25;;;0.80;;
24637;SDS011;12773;50.162;8.548;2022-09-27T16:04:07;0.80;;;0.70;;
24637;SDS011;12773;50.162;8.548;2022-09-27T16:06:54;2.08;;;0.88;;
24637;SDS011;12773;50.162;8.548;2022-09-27T16:09:41;3.08;;;0.65;;
24637;SDS011;12773;50.162;8.548;2022-09-27T16:12:29;1.75;;;0.80;;
24637;SDS011;12773;50.162;8.548;2022-09-27T16:15:16;2.17;;;1.30;;
24637;SDS011;12773;50.162;8.548;2022-09-27T16:18:04;1.55;;;1.00;;
24637;SDS011;12773;50.162;8.548;2022-09-27T16:20:51;1.27;;;0.88;;
24637;SDS011;12773;50.162;8.548;2022-09-27T16:23:39;2.05;;;1.10;;
24637;SDS011;12773;50.162;8.548;2022-09-27T16:26:26;2.37;;;1.37;;
24637;SDS011;12773;50.162;8.548;2022-09-27T16:29:14;0.82;;;0.80;;
24637;SDS011;12773;50.162;8.548;2022-09-27T16:32:02;1.35;;;1.15;;
24637;SDS011;12773;50.162;8.548;2022-09-27T16:34:51;1.07;;;0.90;;
24637;SDS011;12773;50.162;8.548;2022-09-27T16:37:38;2.90;;;1.05;;
24637;SDS011;12773;50.162;8.548;2022-09-27T16:40:26;2.15;;;1.10;;
24637;SDS011;12773;50.162;8.548;2022-09-27T16:43:15;1.22;;;0.90;;
24637;SDS011;12773;50.162;8.548;2022-09-27T16:46:05;2.80;;;0.90;;
24637;SDS011;12773;50.162;8.548;2022-09-27T16:48:55;1.42;;;0.70;;
24637;SDS011;12773;50.162;8.548;2022-09-27T16:51:42;1.17;;;0.78;;
24637;SDS011;12773;50.162;8.548;2022-09-27T16:54:44;0.90;;;0.90;;
24637;SDS011;12773;50.162;8.548;2022-09-27T16:57:32;1.42;;;0.93;;
24637;SDS011;12773;50.162;8.548;2022-09-27T17:00:19;2.20;;;1.12;;
24637;SDS011;12773;50.162;8.548;2022-09-27T17:03:07;0.70;;;0.70;;
24637;SDS011;12773;50.162;8.548;2022-09-27T17:05:59;0.80;;;0.70;;
24637;SDS011;12773;50.162;8.548;2022-09-27T17:08:45;2.40;;;0.70;;
24637;SDS011;12773;50.162;8.548;2022-09-27T17:11:32;0.95;;;0.70;;
24637;SDS011;12773;50.162;8.548;2022-09-27T17:14:20;1.07;;;0.80;;
24637;SDS011;12773;50.162;8.548;2022-09-27T17:17:07;3.05;;;0.82;;
24637;SDS011;12773;50.162;8.548;2022-09-27T17:19:55;1.10;;;0.80;;
24637;SDS011;12773;50.162;8.548;2022-09-27T17:22:42;0.98;;;0.68;;
24637;SDS011;12773;50.162;8.548;2022-09-27T17:25:35;2.05;;;1.00;;
24637;SDS011;12773;50.162;8.548;2022-09-27T17:28:19;4.67;;;1.50;;
24637;SDS011;12773;50.162;8.548;2022-09-27T17:31:07;2.58;;;1.45;;
24637;SDS011;12773;50.162;8.548;2022-09-27T17:33:56;2.77;;;1.10;;
24637;SDS011;12773;50.162;8.548;2022-09-27T17:36:44;2.05;;;1.02;;
24637;SDS011;12773;50.162;8.548;2022-09-27T17:39:36;1.98;;;1.15;;
24637;SDS011;12773;50.162;8.548;2022-09-27T17:42:23;2.50;;;1.30;;
24637;SDS011;12773;50.162;8.548;2022-09-27T17:45:11;2.52;;;1.27;;
24637;SDS011;12773;50.162;8.548;2022-09-27T17:47:58;2.47;;;1.47;;
24637;SDS011;12773;50.162;8.548;2022-09-27T17:51:04;2.65;;;1.42;;
24637;SDS011;12773;50.162;8.548;2022-09-27T17:53:52;1.62;;;1.30;;
24637;SDS011;12773;50.162;8.548;2022-09-27T17:56:40;2.22;;;1.30;;
24637;SDS011;12773;50.162;8.548;2022-09-27T17:59:28;1.77;;;1.42;;
24637;SDS011;12773;50.162;8.548;2022-09-27T18:02:16;1.70;;;1.30;;
24637;SDS011;12773;50.162;8.548;2022-09-27T18:05:04;2.37;;;1.40;;
24637;SDS011;12773;50.162;8.548;2022-09-27T18:07:51;2.20;;;1.40;;
24637;SDS011;12773;50.162;8.548;2022-09-27T18:10:39;4.03;;;1.80;;
24637;SDS011;12773;50.162;8.548;2022-09-27T18:13:26;2.70;;;2.20;;
24637;SDS011;12773;50.162;8.548;2022-09-27T18:16:16;2.80;;;2.30;;
24637;SDS011;12773;50.162;8.548;2022-09-27T18:19:05;3.72;;;2.50;;
24637;SDS011;12773;50.162;8.548;2022-09-27T18:21:54;4.45;;;1.85;;
24637;SDS011;12773;50.162;8.548;2022-09-27T18:24:42;7.53;;;2.10;;
24637;SDS011;12773;50.162;8.548;2022-09-27T18:27:29;6.15;;;2.35;;
24637;SDS011;12773;50.162;8.548;2022-09-27T18:30:18;4.00;;;2.00;;
24637;SDS011;12773;50.162;8.548;2022-09-27T18:33:05;6.30;;;2.10;;
24637;SDS011;12773;50.162;8.548;2022-09-27T18:35:53;4.37;;;2.10;;
24637;SDS011;12773;50.162;8.548;2022-09-27T18:38:40;4.05;;;2.08;;
24637;SDS011;12773;50.162;8.548;2022-09-27T18:41:28;3.37;;;2.45;;
24637;SDS011;12773;50.162;8.548;2022-09-27T18:44:16;3.15;;;2.22;;
24637;SDS011;12773;50.162;8.548;2022-09-27T18:47:04;5.47;;;2.75;;
24637;SDS011;12773;50.162;8.548;2022-09-27T18:49:51;3.10;;;2.22;;
24637;SDS011;12773;50.162;8.548;2022-09-27T18:52:39;4.33;;;1.92;;
24637;SDS011;12773;50.162;8.548;2022-09-27T18:55:27;5.10;;;1.55;;
24637;SDS011;12773;50.162;8.548;2022-09-27T18:58:15;6.45;;;1.75;;
24637;SDS011;12773;50.162;8.548;2022-09-27T19:01:03;3.77;;;1.80;;
24637;SDS011;12773;50.162;8.548;2022-09-27T19:03:52;4.97;;;1.70;;
24637;SDS011;12773;50.162;8.548;2022-09-27T19:06:39;2.10;;;1.60;;
24637;SDS011;12773;50.162;8.548;2022-09-27T19:09:27;1.72;;;1.50;;
24637;SDS011;12773;50.162;8.548;2022-09-27T19:12:14;3.83;;;1.90;;
24637;SDS011;12773;50.162;8.548;2022-09-27T19:15:02;2.47;;;1.57;;
24637;SDS011;12773;50.162;8.548;2022-09-27T19:17:50;6.10;;;2.65;;